Terminal Aerodrome Forecast
Issued by NWS Grand Forks, ND

Home | Current Version | Previous Version | Graphics & Text | Print | Product List | Glossary On
Versions: 1 2 3 4 5 6 7 8 9 10 11 12 13 14 15 16 17 18 19 20 21 22 23
201
FTUS43 KFGF 110436 AAA
TAFFAR
TAF AMD
KFAR 110436Z 1105/1124 VRB05KT P6SM OVC070
     FM110600 VRB04KT P6SM SCT070
     FM111100 VRB04KT P6SM BKN070
     FM111800 VRB05KT P6SM OVC040=

USA.gov is the U.S. government's official web portal to all federal, state and local government web resources and services.